San Cristobal, Argentina
Current Conditions -  °F | °C
As of 2:00 AM on Thursday 23 Oct 2014 (Local Time) from SAAR Reporting Station
Clear Clear  
Wind Chill: 66°   Ceiling: Unl
Heat Index: 66°   Visibility: 6mi
Dew Point: 61°   Wind: 2mph
Humidity: 83%   Direction: 20°NNE
Pressure: 29.97"   Gusts: NA
Location:  30.32°S, 61.23°W
Report Text: SAAR 230500Z 02002KT CAVOK 19/16 Q1015
Loading
Personal Weather Stations






























Interactive Weather Map
Tropical Storm Tracking
New forecast layout! Learn more

10-Day Weather Forecast

Advertisements
Track Severe Weather on mobile